Time;durP1;ratioP1;P1;durP2;ratioP2;P2;SDS_P1;SDS_P2;PMS_P1;PMS_P2;Temp;Humidity;BMP_temperature;BMP_pressure;BME280_temperature;BME280_humidity;BME280_pressure;Samples;Min_cycle;Max_cycle;Signal;HPM_P1;HPM_P2
2023/12/15 00:02:01;;;;;;;7.40;4.88;;;;;;;;;;5035222;28;20044;-58
2023/12/15 00:04:55;;;;;;;9.65;5.32;;;;;;;;;;5032411;28;20057;-56
2023/12/15 00:07:43;;;;;;;8.13;4.68;;;;;;;;;;5032348;28;20049;-58
2023/12/15 00:10:40;;;;;;;13.18;5.35;;;;;;;;;;5035056;28;20524;-57
2023/12/15 00:13:27;;;;;;;9.23;5.38;;;;;;;;;;5030321;28;20045;-52
2023/12/15 00:16:21;;;;;;;10.65;5.43;;;;;;;;;;5031926;28;20057;-49
2023/12/15 00:18:49;;;;;;;8.32;5.15;;;;;;;;;;5033225;28;20107;-51
2023/12/15 00:21:24;;;;;;;14.75;5.47;;;;;;;;;;5031912;28;20128;-66
2023/12/15 00:23:51;;;;;;;10.70;5.60;;;;;;;;;;5030872;28;20439;-60
2023/12/15 00:26:18;;;;;;;10.88;5.75;;;;;;;;;;5030345;28;20053;-55
2023/12/15 00:29:05;;;;;;;8.38;4.97;;;;;;;;;;5026494;28;20053;-57
2023/12/15 00:31:40;;;;;;;9.35;4.97;;;;;;;;;;5035875;28;20071;-58
2023/12/15 00:34:14;;;;;;;9.52;5.22;;;;;;;;;;5028335;28;20249;-57
2023/12/15 00:36:41;;;;;;;9.10;5.50;;;;;;;;;;5031492;28;20140;-58
2023/12/15 00:39:08;;;;;;;8.43;5.18;;;;;;;;;;5033991;28;20056;-58
2023/12/15 00:41:43;;;;;;;10.70;5.38;;;;;;;;;;5027016;28;20045;-58
2023/12/15 00:44:10;;;;;;;9.63;5.07;;;;;;;;;;5027244;28;20049;-58
2023/12/15 00:46:37;;;;;;;12.15;5.43;;;;;;;;;;5030318;28;20563;-57
2023/12/15 00:49:10;;;;;;;10.05;5.57;;;;;;;;;;5027222;28;20517;-58
2023/12/15 00:51:38;;;;;;;9.95;5.82;;;;;;;;;;5032223;28;20045;-58
2023/12/15 00:54:12;;;;;;;12.55;5.72;;;;;;;;;;5032875;28;20516;-60
2023/12/15 00:56:39;;;;;;;9.93;5.35;;;;;;;;;;5037418;28;20508;-59
2023/12/15 00:59:06;;;;;;;10.45;5.88;;;;;;;;;;5032483;28;20115;-59
2023/12/15 01:01:40;;;;;;;8.23;5.38;;;;;;;;;;5032881;28;20041;-59
2023/12/15 01:04:07;;;;;;;10.10;5.80;;;;;;;;;;5032706;28;20057;-59
2023/12/15 01:06:34;;;;;;;9.60;5.57;;;;;;;;;;5036566;28;21444;-59
2023/12/15 01:09:07;;;;;;;10.90;6.20;;;;;;;;;;5023993;28;20136;-57
2023/12/15 01:11:35;;;;;;;11.20;6.35;;;;;;;;;;5033869;28;20142;-57
2023/12/15 01:14:09;;;;;;;10.57;6.00;;;;;;;;;;5035888;28;20057;-58
2023/12/15 01:16:44;;;;;;;9.65;6.25;;;;;;;;;;5034174;28;20059;-58
2023/12/15 01:19:19;;;;;;;11.02;5.72;;;;;;;;;;5032838;28;20489;-56
2023/12/15 01:21:46;;;;;;;11.15;5.97;;;;;;;;;;5035044;28;20080;-52
2023/12/15 01:24:13;;;;;;;10.73;5.50;;;;;;;;;;5035461;28;20118;-51
2023/12/15 01:26:48;;;;;;;10.30;6.20;;;;;;;;;;5033618;28;20048;-47
2023/12/15 01:29:15;;;;;;;13.63;6.03;;;;;;;;;;5037248;28;20118;-50
2023/12/15 01:31:55;;;;;;;11.50;5.88;;;;;;;;;;5032194;28;20066;-51
2023/12/15 01:34:23;;;;;;;12.00;6.18;;;;;;;;;;5034093;28;20057;-49
2023/12/15 01:36:57;;;;;;;8.80;5.95;;;;;;;;;;5032556;28;20053;-65
2023/12/15 01:39:24;;;;;;;;;;;;;;;;;;5036019;28;21985;-64
2023/12/15 01:41:51;;;;;;;8.48;5.10;;;;;;;;;;5033430;28;20373;-63
2023/12/15 01:44:26;;;;;;;9.20;5.55;;;;;;;;;;5033067;28;20118;-65
2023/12/15 01:46:53;;;;;;;10.98;6.43;;;;;;;;;;5035598;28;20048;-59
2023/12/15 01:49:30;;;;;;;11.82;6.82;;;;;;;;;;5029928;28;20052;-59
2023/12/15 01:51:57;;;;;;;11.48;6.05;;;;;;;;;;5036627;28;20542;-58
2023/12/15 01:54:24;;;;;;;10.35;6.10;;;;;;;;;;5034541;28;20057;-56
2023/12/15 01:56:58;;;;;;;11.20;6.30;;;;;;;;;;5033546;28;20045;-59
2023/12/15 01:59:25;;;;;;;12.50;6.03;;;;;;;;;;5032843;28;20419;-57
2023/12/15 02:01:59;;;;;;;11.57;6.32;;;;;;;;;;5036872;28;20075;-58
2023/12/15 02:04:26;;;;;;;;;;;;;;;;;;5032801;28;20065;-58
2023/12/15 02:07:07;;;;;;;9.57;5.40;;;;;;;;;;5038828;28;19920;-57
2023/12/15 02:09:42;;;;;;;13.43;6.10;;;;;;;;;;5032225;28;20468;-57
2023/12/15 02:12:09;;;;;;;13.35;6.00;;;;;;;;;;5037592;28;20119;-56
2023/12/15 02:14:43;;;;;;;9.98;5.30;;;;;;;;;;5031662;28;20531;-58
2023/12/15 02:17:12;;;;;;;11.05;5.63;;;;;;;;;;5034870;28;20463;-67
2023/12/15 02:19:39;;;;;;;11.52;5.53;;;;;;;;;;5032835;28;20051;-60
2023/12/15 02:22:13;;;;;;;10.48;5.47;;;;;;;;;;5037727;28;20111;-60
2023/12/15 02:24:41;;;;;;;11.73;6.35;;;;;;;;;;5032164;28;20404;-60
2023/12/15 02:27:21;;;;;;;11.50;6.25;;;;;;;;;;5035134;28;20045;-60
2023/12/15 02:29:55;;;;;;;12.02;5.93;;;;;;;;;;5034094;28;20136;-60
2023/12/15 02:32:29;;;;;;;9.65;6.10;;;;;;;;;;5034378;28;20503;-60
2023/12/15 02:34:56;;;;;;;;;;;;;;;;;;5030516;28;20126;-50
2023/12/15 02:37:23;;;;;;;11.85;6.00;;;;;;;;;;5034732;28;19924;-54
2023/12/15 02:39:58;;;;;;;10.52;5.65;;;;;;;;;;5034196;28;20264;-54
2023/12/15 02:42:25;;;;;;;11.07;6.35;;;;;;;;;;5034952;28;20074;-51
2023/12/15 02:45:00;;;;;;;10.57;6.03;;;;;;;;;;5030756;28;20511;-61
2023/12/15 02:47:28;;;;;;;11.65;6.70;;;;;;;;;;5029721;28;20511;-60
2023/12/15 02:49:56;;;;;;;14.02;6.38;;;;;;;;;;5034098;28;20052;-61
2023/12/15 02:52:30;;;;;;;12.00;6.20;;;;;;;;;;5033984;28;20044;-61
2023/12/15 02:54:57;;;;;;;10.38;5.85;;;;;;;;;;5030866;28;20063;-60
2023/12/15 02:57:31;;;;;;;8.68;5.95;;;;;;;;;;5030141;28;20108;-60
2023/12/15 02:59:58;;;;;;;8.85;5.88;;;;;;;;;;5031043;28;20372;-63
2023/12/15 03:02:25;;;;;;;10.35;5.72;;;;;;;;;;5030624;28;20504;-60
2023/12/15 03:05:00;;;;;;;9.20;5.95;;;;;;;;;;5033579;28;20045;-60
2023/12/15 03:07:27;;;;;;;10.20;5.90;;;;;;;;;;5032547;28;21012;-59
2023/12/15 03:10:01;;;;;;;9.95;6.20;;;;;;;;;;5035970;28;20428;-59
2023/12/15 03:12:35;;;;;;;;;;;;;;;;;;5033797;28;20045;-60
2023/12/15 03:15:10;;;;;;;13.48;5.85;;;;;;;;;;5030277;28;19932;-67
2023/12/15 03:17:37;;;;;;;9.63;5.78;;;;;;;;;;5033218;28;20581;-67
2023/12/15 03:20:06;;;;;;;9.93;5.75;;;;;;;;;;5030690;28;20076;-66
2023/12/15 03:22:40;;;;;;;8.77;5.90;;;;;;;;;;5034076;28;20503;-67
2023/12/15 03:25:07;;;;;;;;;;;;;;;;;;5031301;28;20045;-67
2023/12/15 03:27:53;;;;;;;9.98;5.45;;;;;;;;;;5028879;28;19974;-67
2023/12/15 03:30:28;;;;;;;10.63;6.30;;;;;;;;;;5031216;28;20052;-49
2023/12/15 03:33:02;;;;;;;9.30;5.80;;;;;;;;;;5029697;28;20049;-51
2023/12/15 03:35:29;;;;;;;11.75;5.88;;;;;;;;;;5034291;28;20048;-51
2023/12/15 03:37:56;;;;;;;10.40;5.88;;;;;;;;;;5032779;28;20241;-51
2023/12/15 03:40:31;;;;;;;11.45;6.35;;;;;;;;;;5033284;28;20045;-60
2023/12/15 03:42:58;;;;;;;12.60;6.47;;;;;;;;;;5031095;28;20049;-52
2023/12/15 03:45:25;;;;;;;9.73;6.07;;;;;;;;;;5028546;28;20049;-55
2023/12/15 03:48:00;;;;;;;9.95;6.10;;;;;;;;;;5031735;28;20041;-58
2023/12/15 03:50:27;;;;;;;15.32;6.80;;;;;;;;;;5029726;28;20156;-57
2023/12/15 03:53:01;;;;;;;15.27;8.57;;;;;;;;;;5026719;28;20429;-58
2023/12/15 03:55:28;;;;;;;;;;;;;;;;;;5035111;28;20049;-58
2023/12/15 03:57:55;;;;;;;12.52;7.50;;;;;;;;;;5013148;28;19972;-58
2023/12/15 04:00:29;;;;;;;16.13;8.20;;;;;;;;;;5031687;28;20508;-64
2023/12/15 04:02:57;;;;;;;14.88;8.70;;;;;;;;;;5032635;28;20138;-65
2023/12/15 04:05:31;;;;;;;17.65;7.88;;;;;;;;;;5032461;28;20056;-64
2023/12/15 04:07:59;;;;;;;17.70;8.18;;;;;;;;;;5028863;28;20104;-63
2023/12/15 04:10:26;;;;;;;18.33;8.98;;;;;;;;;;5035528;28;20522;-57
2023/12/15 04:13:00;;;;;;;13.63;8.02;;;;;;;;;;5033319;28;20045;-65
2023/12/15 04:15:27;;;;;;;16.17;8.80;;;;;;;;;;5032667;28;20098;-64
2023/12/15 04:17:54;;;;;;;16.50;8.90;;;;;;;;;;5033264;28;20056;-64
2023/12/15 04:20:28;;;;;;;14.93;8.35;;;;;;;;;;5034728;28;20041;-64
2023/12/15 04:22:55;;;;;;;15.68;9.13;;;;;;;;;;5028579;28;20604;-63
2023/12/15 04:25:29;;;;;;;18.27;9.25;;;;;;;;;;5033616;28;20049;-63
2023/12/15 04:28:09;;;;;;;14.35;8.50;;;;;;;;;;5031472;28;20059;-49
2023/12/15 04:30:44;;;;;;;17.75;9.18;;;;;;;;;;5030736;28;20059;-50
2023/12/15 04:33:11;;;;;;;20.80;9.93;;;;;;;;;;5031749;28;20319;-52
2023/12/15 04:35:38;;;;;;;18.20;9.75;;;;;;;;;;5030977;28;20148;-53
2023/12/15 04:38:12;;;;;;;18.20;10.05;;;;;;;;;;5033111;28;20579;-57
2023/12/15 04:40:39;;;;;;;21.75;11.32;;;;;;;;;;5027979;28;20264;-51
2023/12/15 04:43:06;;;;;;;21.33;10.63;;;;;;;;;;5025380;28;20056;-49
2023/12/15 04:45:41;;;;;;;15.82;9.35;;;;;;;;;;5031361;28;20144;-49
2023/12/15 04:48:08;;;;;;;18.35;9.77;;;;;;;;;;5030276;28;20056;-52
2023/12/15 04:50:35;;;;;;;21.02;10.55;;;;;;;;;;5027796;28;20051;-49
2023/12/15 04:53:09;;;;;;;25.88;11.57;;;;;;;;;;5031431;28;20056;-47
2023/12/15 04:55:43;;;;;;;22.98;11.32;;;;;;;;;;5031771;28;20144;-53
2023/12/15 04:58:10;;;;;;;23.42;10.85;;;;;;;;;;5027453;28;20044;-54
2023/12/15 05:00:37;;;;;;;38.10;11.88;;;;;;;;;;5031014;28;20053;-53
2023/12/15 05:03:11;;;;;;;29.40;12.52;;;;;;;;;;5026671;28;21326;-50
2023/12/15 05:05:38;;;;;;;28.67;11.93;;;;;;;;;;5035723;28;20520;-52
2023/12/15 05:08:05;;;;;;;27.20;11.95;;;;;;;;;;5033475;28;20071;-53
2023/12/15 05:10:39;;;;;;;33.17;13.10;;;;;;;;;;5033838;28;20403;-53
2023/12/15 05:13:06;;;;;;;28.08;13.45;;;;;;;;;;5028527;28;20049;-54
2023/12/15 05:15:33;;;;;;;32.00;13.43;;;;;;;;;;5031022;28;20049;-51
2023/12/15 05:18:07;;;;;;;29.63;13.27;;;;;;;;;;5028185;28;20142;-52
2023/12/15 05:20:36;;;;;;;34.08;13.18;;;;;;;;;;5029920;28;20184;-53
2023/12/15 05:23:13;;;;;;;37.30;12.45;;;;;;;;;;5030372;28;20119;-53
2023/12/15 05:25:41;;;;;;;33.75;14.05;;;;;;;;;;5025662;28;20056;-60
2023/12/15 05:28:08;;;;;;;;;;;;;;;;;;5030437;28;20152;-59
2023/12/15 05:30:48;;;;;;;36.08;13.02;;;;;;;;;;5028598;28;20058;-60
2023/12/15 05:33:16;;;;;;;35.67;13.05;;;;;;;;;;5028031;28;20136;-59
2023/12/15 05:35:50;;;;;;;35.33;13.63;;;;;;;;;;5034445;28;20049;-66
2023/12/15 05:38:17;;;;;;;36.00;12.95;;;;;;;;;;5033078;28;20072;-48
2023/12/15 05:40:44;;;;;;;40.08;15.15;;;;;;;;;;5032577;28;20409;-51
2023/12/15 05:43:18;;;;;;;37.95;13.52;;;;;;;;;;5030422;28;20087;-53
2023/12/15 05:45:45;;;;;;;37.60;13.00;;;;;;;;;;5035446;28;20052;-50
2023/12/15 05:48:19;;;;;;;38.92;13.38;;;;;;;;;;5027807;28;20355;-51
2023/12/15 05:50:46;;;;;;;35.63;11.60;;;;;;;;;;5035002;28;20140;-51
2023/12/15 05:53:14;;;;;;;34.00;12.35;;;;;;;;;;5036450;28;20040;-54
2023/12/15 05:55:48;;;;;;;38.70;13.23;;;;;;;;;;5033790;28;20070;-52
2023/12/15 05:58:15;;;;;;;38.67;12.73;;;;;;;;;;5030039;28;20423;-50
2023/12/15 06:00:50;;;;;;;37.17;11.90;;;;;;;;;;5027659;28;20053;-53
2023/12/15 06:03:17;;;;;;;44.85;13.95;;;;;;;;;;5034960;28;20049;-67
2023/12/15 06:05:45;;;;;;;70.07;14.88;;;;;;;;;;5039919;28;20049;-59
2023/12/15 06:08:19;;;;;;;45.65;12.70;;;;;;;;;;5032125;28;20510;-64
2023/12/15 06:10:46;;;;;;;;;;;;;;;;;;5035172;28;20045;-60
2023/12/15 06:13:20;;;;;;;68.45;14.07;;;;;;;;;;5039385;28;19920;-57
2023/12/15 06:15:47;;;;;;;69.13;14.65;;;;;;;;;;5035089;28;20084;-58
2023/12/15 06:18:14;;;;;;;118.53;17.48;;;;;;;;;;5036787;28;20049;-59
2023/12/15 06:20:48;;;;;;;136.00;18.83;;;;;;;;;;5033392;28;20053;-60
2023/12/15 06:23:15;;;;;;;183.82;20.02;;;;;;;;;;5034372;28;20049;-59
2023/12/15 06:25:49;;;;;;;165.00;19.00;;;;;;;;;;5034819;28;20363;-60
2023/12/15 06:28:22;;;;;;;203.93;21.05;;;;;;;;;;5034624;28;20045;-60
2023/12/15 06:31:06;;;;;;;243.10;21.02;;;;;;;;;;5035736;28;20413;-58
2023/12/15 06:33:33;;;;;;;108.32;17.38;;;;;;;;;;5034160;28;20052;-59
2023/12/15 06:36:07;;;;;;;149.32;18.63;;;;;;;;;;5040197;28;20080;-54
2023/12/15 06:38:42;;;;;;;175.93;20.75;;;;;;;;;;5034378;28;20045;-50
2023/12/15 06:41:16;;;;;;;200.00;19.83;;;;;;;;;;5030798;28;20513;-53
2023/12/15 06:43:43;;;;;;;;;;;;;;;;;;5038036;28;20052;-54
2023/12/15 06:46:11;;;;;;;199.43;19.27;;;;;;;;;;5038687;28;20038;-54
2023/12/15 06:48:45;;;;;;;282.15;24.23;;;;;;;;;;5036474;28;20068;-55
2023/12/15 06:51:13;;;;;;;215.15;22.40;;;;;;;;;;5036873;28;20080;-58
2023/12/15 06:53:40;;;;;;;239.02;23.40;;;;;;;;;;5035966;28;20045;-57
2023/12/15 06:56:14;;;;;;;245.10;23.88;;;;;;;;;;5036068;28;20044;-59
2023/12/15 06:58:41;;;;;;;326.42;28.73;;;;;;;;;;5035091;28;20531;-59
2023/12/15 07:01:15;;;;;;;327.17;28.63;;;;;;;;;;5034396;28;20056;-58
2023/12/15 07:03:42;;;;;;;280.15;28.17;;;;;;;;;;5033622;28;20144;-61
2023/12/15 07:06:09;;;;;;;362.60;30.73;;;;;;;;;;5040649;28;20520;-60
2023/12/15 07:08:44;;;;;;;406.45;30.15;;;;;;;;;;5035991;28;20051;-60
2023/12/15 07:11:11;;;;;;;326.88;27.02;;;;;;;;;;5042316;28;20045;-60
2023/12/15 07:13:38;;;;;;;408.42;33.33;;;;;;;;;;5033656;28;20128;-60
2023/12/15 07:16:12;;;;;;;565.50;39.22;;;;;;;;;;5034877;28;20069;-60
2023/12/15 07:18:39;;;;;;;504.38;36.20;;;;;;;;;;5018272;28;20330;-61
2023/12/15 07:21:13;;;;;;;709.30;44.00;;;;;;;;;;5034278;28;20106;-60
2023/12/15 07:23:40;;;;;;;641.28;42.38;;;;;;;;;;5036786;28;20049;-60
2023/12/15 07:26:07;;;;;;;;;;;;;;;;;;5036044;28;20044;-61
2023/12/15 07:28:48;;;;;;;924.38;56.30;;;;;;;;;;5035901;28;19927;-57
2023/12/15 07:31:16;;;;;;;655.85;39.20;;;;;;;;;;5038709;28;20110;-60
2023/12/15 07:33:50;;;;;;;723.50;45.00;;;;;;;;;;5038848;28;20049;-60
2023/12/15 07:36:17;;;;;;;;;;;;;;;;;;5031354;28;20041;-60
2023/12/15 07:38:44;;;;;;;946.70;49.95;;;;;;;;;;5036077;28;19994;-60
2023/12/15 07:41:18;;;;;;;981.30;55.72;;;;;;;;;;5034837;28;20128;-60
2023/12/15 07:43:45;;;;;;;874.15;47.70;;;;;;;;;;5032984;28;20136;-60
2023/12/15 07:46:18;;;;;;;1015.60;60.00;;;;;;;;;;5034557;28;20124;-52
2023/12/15 07:48:53;;;;;;;775.85;45.28;;;;;;;;;;5033970;28;20103;-54
2023/12/15 07:51:20;;;;;;;;;;;;;;;;;;5036106;28;20061;-54
2023/12/15 07:53:48;;;;;;;623.42;35.42;;;;;;;;;;5019146;28;19928;-53
2023/12/15 07:56:22;;;;;;;637.15;36.28;;;;;;;;;;5036022;28;20052;-65
2023/12/15 07:58:50;;;;;;;762.15;44.40;;;;;;;;;;5035167;28;20053;-59
2023/12/15 08:01:24;;;;;;;1000.88;56.53;;;;;;;;;;5035834;28;20420;-50
2023/12/15 08:03:51;;;;;;;752.08;44.22;;;;;;;;;;5029995;28;20633;-49
2023/12/15 08:06:19;;;;;;;1158.25;66.25;;;;;;;;;;5036531;28;20111;-50
2023/12/15 08:08:53;;;;;;;864.97;47.35;;;;;;;;;;5030702;28;20049;-51
2023/12/15 08:11:22;;;;;;;1051.20;60.70;;;;;;;;;;5035326;28;20133;-54
2023/12/15 08:13:56;;;;;;;905.00;46.63;;;;;;;;;;5034128;28;20056;-52
2023/12/15 08:16:23;;;;;;;1065.18;58.55;;;;;;;;;;5038047;28;20049;-50
2023/12/15 08:18:50;;;;;;;931.95;48.92;;;;;;;;;;5037091;28;20053;-54
2023/12/15 08:21:25;;;;;;;867.28;45.35;;;;;;;;;;5034269;28;20102;-53
2023/12/15 08:23:52;;;;;;;997.58;51.50;;;;;;;;;;5033956;28;20401;-51
2023/12/15 08:26:27;;;;;;;664.25;34.28;;;;;;;;;;5034227;28;20044;-54
2023/12/15 08:29:00;;;;;;;871.78;45.00;;;;;;;;;;5035917;28;20111;-60
2023/12/15 08:31:34;;;;;;;916.95;46.78;;;;;;;;;;5035021;28;20571;-61
2023/12/15 08:34:01;;;;;;;;;;;;;;;;;;5034242;28;20432;-60
2023/12/15 08:36:28;;;;;;;719.45;34.03;;;;;;;;;;5037756;28;19924;-59
2023/12/15 08:39:03;;;;;;;880.30;43.53;;;;;;;;;;5037260;28;20045;-59
2023/12/15 08:41:30;;;;;;;793.58;39.67;;;;;;;;;;5032618;28;20041;-58
2023/12/15 08:44:04;;;;;;;1014.33;52.65;;;;;;;;;;5036912;28;20049;-60
2023/12/15 08:46:35;;;;;;;881.55;47.13;;;;;;;;;;5039613;28;20045;-61
2023/12/15 08:49:03;;;;;;;983.05;51.80;;;;;;;;;;5031023;28;20053;-61
2023/12/15 08:51:38;;;;;;;494.63;26.88;;;;;;;;;;5035751;28;20393;-61
2023/12/15 08:54:06;;;;;;;811.55;43.10;;;;;;;;;;5031994;28;20049;-60
2023/12/15 08:56:43;;;;;;;;;;;;;;;;;;5034300;28;20049;-68
2023/12/15 08:59:10;;;;;;;882.42;46.58;;;;;;;;;;5037545;28;19928;-68
2023/12/15 09:01:38;;;;;;;1017.85;56.47;;;;;;;;;;5036534;28;20045;-69
2023/12/15 09:04:12;;;;;;;827.40;46.45;;;;;;;;;;5034636;28;20150;-69
2023/12/15 09:06:39;;;;;;;840.42;44.80;;;;;;;;;;5030761;28;20061;-69
2023/12/15 09:09:16;;;;;;;938.22;52.63;;;;;;;;;;5033934;28;20517;-69
2023/12/15 09:11:44;;;;;;;1101.50;63.78;;;;;;;;;;5037084;28;20073;-50
2023/12/15 09:14:11;;;;;;;915.85;49.53;;;;;;;;;;5040990;28;20053;-52
2023/12/15 09:16:47;;;;;;;851.80;51.78;;;;;;;;;;5041091;28;20126;-51
2023/12/15 09:19:14;;;;;;;922.40;50.63;;;;;;;;;;5035014;28;20048;-52
2023/12/15 09:21:48;;;;;;;892.00;52.38;;;;;;;;;;5036493;28;20102;-59
2023/12/15 09:24:17;;;;;;;1029.97;54.92;;;;;;;;;;5036989;28;20053;-60
2023/12/15 09:26:45;;;;;;;1158.95;69.03;;;;;;;;;;5034434;28;20048;-61
2023/12/15 09:29:25;;;;;;;911.65;48.38;;;;;;;;;;5037485;28;20657;-61
2023/12/15 09:31:59;;;;;;;1041.53;59.50;;;;;;;;;;5035932;28;20732;-61
2023/12/15 09:34:33;;;;;;;1325.43;72.22;;;;;;;;;;5041126;28;20050;-61
2023/12/15 09:37:00;;;;;;;;;;;;;;;;;;5040371;28;20057;-61
2023/12/15 09:39:28;;;;;;;1102.00;62.05;;;;;;;;;;5043756;28;20400;-60
2023/12/15 09:42:02;;;;;;;1097.88;63.40;;;;;;;;;;5038109;28;20041;-64
2023/12/15 09:44:29;;;;;;;1189.40;62.22;;;;;;;;;;5038036;28;20052;-65
2023/12/15 09:47:23;;;;;;;1020.75;58.22;;;;;;;;;;5037213;28;20166;-65
2023/12/15 09:49:52;;;;;;;953.08;50.90;;;;;;;;;;5035983;28;20153;-65
2023/12/15 09:52:26;;;;;;;1064.18;57.75;;;;;;;;;;5038868;28;20072;-65
2023/12/15 09:54:54;;;;;;;1219.95;66.90;;;;;;;;;;5036939;28;20318;-51
2023/12/15 09:57:21;;;;;;;1236.65;68.55;;;;;;;;;;5035891;28;20744;-55
2023/12/15 09:59:55;;;;;;;793.30;44.10;;;;;;;;;;5039229;28;20463;-51
2023/12/15 10:02:22;;;;;;;544.05;29.38;;;;;;;;;;5031810;28;20080;-53
2023/12/15 10:04:57;;;;;;;591.13;31.27;;;;;;;;;;5032456;28;20251;-52
2023/12/15 10:07:24;;;;;;;175.77;13.15;;;;;;;;;;5034374;28;20178;-52
2023/12/15 10:09:52;;;;;;;344.13;21.25;;;;;;;;;;5018048;28;20052;-57
2023/12/15 10:12:27;;;;;;;221.30;17.58;;;;;;;;;;5037297;28;20064;-48
2023/12/15 10:14:54;;;;;;;91.55;9.80;;;;;;;;;;5038012;28;20115;-51
2023/12/15 10:17:28;;;;;;;133.82;11.60;;;;;;;;;;5037188;28;20775;-52
2023/12/15 10:19:55;;;;;;;;;;;;;;;;;;5037580;28;20044;-61
2023/12/15 10:22:22;;;;;;;77.18;7.55;;;;;;;;;;5035065;28;19982;-60
2023/12/15 10:24:57;;;;;;;78.45;8.38;;;;;;;;;;5036965;28;20151;-60
2023/12/15 10:27:24;;;;;;;64.30;7.25;;;;;;;;;;5033317;28;20102;-60
2023/12/15 10:30:04;;;;;;;59.63;7.13;;;;;;;;;;5038518;28;20052;-60
2023/12/15 10:32:38;;;;;;;69.82;7.80;;;;;;;;;;5034632;28;20068;-60
2023/12/15 10:35:19;;;;;;;47.85;7.30;;;;;;;;;;5034498;28;20671;-61
2023/12/15 10:37:46;;;;;;;75.20;8.98;;;;;;;;;;5041313;28;20045;-69
2023/12/15 10:40:20;;;;;;;58.38;7.32;;;;;;;;;;5030542;28;20103;-71
2023/12/15 10:42:50;;;;;;;75.30;8.13;;;;;;;;;;5033682;28;20471;-69
2023/12/15 10:45:18;;;;;;;66.13;7.95;;;;;;;;;;5036047;28;20119;-70
2023/12/15 10:47:53;;;;;;;78.82;8.20;;;;;;;;;;5033561;28;20049;-59
2023/12/15 10:50:20;;;;;;;54.65;7.20;;;;;;;;;;5024195;28;21319;-52
2023/12/15 10:52:49;;;;;;;64.28;7.70;;;;;;;;;;5036946;28;20143;-53
2023/12/15 10:55:28;;;;;;;58.80;6.68;;;;;;;;;;5033508;28;20045;-53
2023/12/15 10:58:01;;;;;;;74.93;6.88;;;;;;;;;;5032872;28;20519;-58
2023/12/15 11:00:36;;;;;;;43.42;6.22;;;;;;;;;;5036550;28;20114;-55
2023/12/15 11:03:04;;;;;;;67.47;6.75;;;;;;;;;;5033040;28;20474;-54
2023/12/15 11:05:35;;;;;;;47.55;5.55;;;;;;;;;;5038101;28;20731;-66
2023/12/15 11:08:10;;;;;;;51.60;6.28;;;;;;;;;;5024427;28;20037;-67
2023/12/15 11:10:46;;;;;;;50.88;6.47;;;;;;;;;;5034128;28;20128;-65
2023/12/15 11:13:32;;;;;;;55.85;6.40;;;;;;;;;;5034083;28;20111;-66
2023/12/15 11:16:06;;;;;;;47.53;5.28;;;;;;;;;;5033002;28;20500;-59
2023/12/15 11:18:34;;;;;;;37.42;4.43;;;;;;;;;;5029638;28;20060;-65
2023/12/15 11:21:12;;;;;;;53.05;6.43;;;;;;;;;;5017792;28;20041;-58
2023/12/15 11:23:58;;;;;;;53.42;6.40;;;;;;;;;;5032803;28;20081;-58
2023/12/15 11:26:34;;;;;;;43.05;5.68;;;;;;;;;;5034635;28;20049;-58
2023/12/15 11:29:02;;;;;;;47.17;5.40;;;;;;;;;;5034544;28;20049;-58
2023/12/15 11:31:43;;;;;;;58.05;6.07;;;;;;;;;;5035062;28;20061;-58
2023/12/15 11:34:30;;;;;;;40.03;5.55;;;;;;;;;;5036160;28;20463;-51
2023/12/15 11:37:04;;;;;;;57.67;5.95;;;;;;;;;;5034883;28;20102;-49
2023/12/15 11:39:31;;;;;;;;;;;;;;;;;;5036238;28;20140;-53
2023/12/15 11:42:05;;;;;;;50.60;5.82;;;;;;;;;;5035364;28;19971;-50
2023/12/15 11:44:32;;;;;;;;;;;;;;;;;;5040497;28;20058;-58
2023/12/15 11:47:06;;;;;;;38.03;4.53;;;;;;;;;;5037496;28;19995;-67
2023/12/15 11:49:33;;;;;;;;;;;;;;;;;;5037211;28;20044;-68
2023/12/15 11:52:04;;;;;;;60.30;6.07;;;;;;;;;;5038560;28;20400;-68
2023/12/15 11:54:39;;;;;;;47.40;5.20;;;;;;;;;;5032267;28;20111;-68
2023/12/15 11:57:06;;;;;;;46.83;5.22;;;;;;;;;;5036027;28;20045;-68
2023/12/15 11:59:44;;;;;;;52.15;6.25;;;;;;;;;;5038347;28;20057;-69
2023/12/15 12:02:16;;;;;;;48.88;5.78;;;;;;;;;;5035799;28;20045;-58
2023/12/15 12:04:50;;;;;;;;;;;;;;;;;;5032256;28;20138;-57
2023/12/15 12:07:24;;;;;;;46.20;5.40;;;;;;;;;;5031141;28;19991;-58
2023/12/15 12:09:58;;;;;;;49.45;5.25;;;;;;;;;;5019711;28;20045;-58
2023/12/15 12:12:25;;;;;;;49.88;5.45;;;;;;;;;;5030980;28;20142;-59
2023/12/15 12:14:52;;;;;;;49.13;5.75;;;;;;;;;;5036095;28;20068;-59
2023/12/15 12:17:26;;;;;;;59.97;5.72;;;;;;;;;;5035116;28;20044;-60
2023/12/15 12:19:54;;;;;;;53.25;6.18;;;;;;;;;;5032168;28;20749;-62
2023/12/15 12:22:28;;;;;;;51.92;5.25;;;;;;;;;;5037587;28;20519;-60
2023/12/15 12:24:55;;;;;;;54.17;7.72;;;;;;;;;;5035430;28;20492;-60
2023/12/15 12:27:29;;;;;;;55.05;6.07;;;;;;;;;;5034170;28;20107;-60
2023/12/15 12:30:12;;;;;;;64.40;5.55;;;;;;;;;;5031194;28;20060;-60
2023/12/15 12:32:40;;;;;;;48.72;5.63;;;;;;;;;;5036474;28;20508;-63
2023/12/15 12:35:14;;;;;;;59.40;5.55;;;;;;;;;;5034468;28;20049;-63
2023/12/15 12:37:41;;;;;;;55.90;6.10;;;;;;;;;;5033405;28;20500;-63
2023/12/15 12:40:15;;;;;;;46.33;5.60;;;;;;;;;;5035644;28;20098;-62
2023/12/15 12:42:49;;;;;;;67.65;6.32;;;;;;;;;;5034219;28;20094;-59
2023/12/15 12:45:16;;;;;;;73.57;6.60;;;;;;;;;;5037149;28;20048;-54
2023/12/15 12:47:49;;;;;;;64.80;7.55;;;;;;;;;;5038829;28;20052;-52
2023/12/15 12:50:24;;;;;;;50.70;6.35;;;;;;;;;;5022752;28;20053;-53
2023/12/15 12:52:51;;;;;;;60.97;5.65;;;;;;;;;;5036915;28;20050;-51
2023/12/15 12:55:25;;;;;;;71.15;7.30;;;;;;;;;;5038692;28;20056;-54
2023/12/15 12:57:53;;;;;;;;;;;;;;;;;;5038407;28;20513;-54
2023/12/15 13:00:20;;;;;;;59.08;5.43;;;;;;;;;;5040074;28;19970;-59
2023/12/15 13:02:54;;;;;;;66.68;6.38;;;;;;;;;;5039922;28;20045;-59
2023/12/15 13:05:22;;;;;;;53.83;7.00;;;;;;;;;;5034109;28;20151;-59
2023/12/15 13:07:56;;;;;;;60.35;6.97;;;;;;;;;;5039144;28;20145;-60
2023/12/15 13:10:23;;;;;;;59.78;5.90;;;;;;;;;;5040261;28;20119;-56
2023/12/15 13:12:54;;;;;;;56.13;6.32;;;;;;;;;;5043519;28;20049;-48
2023/12/15 13:15:29;;;;;;;70.75;7.03;;;;;;;;;;5037404;28;20061;-52
2023/12/15 13:17:59;;;;;;;62.50;6.90;;;;;;;;;;5036987;28;20045;-53
2023/12/15 13:20:33;;;;;;;59.30;6.18;;;;;;;;;;5037840;28;20456;-51
2023/12/15 13:23:00;;;;;;;;;;;;;;;;;;5037399;28;20052;-49
2023/12/15 13:25:29;;;;;;;;;;;;;;;;;;5038469;28;19920;-53
2023/12/15 13:28:05;;;;;;;62.42;6.05;;;;;;;;;;5037651;28;19933;-60
2023/12/15 13:30:39;;;;;;;63.05;6.35;;;;;;;;;;5037507;28;20057;-60
2023/12/15 13:33:15;;;;;;;56.13;6.10;;;;;;;;;;5039794;28;20417;-60
2023/12/15 13:35:42;;;;;;;58.08;5.88;;;;;;;;;;5033264;28;20638;-60
2023/12/15 13:38:10;;;;;;;54.25;5.72;;;;;;;;;;5038188;28;20053;-59
2023/12/15 13:40:44;;;;;;;49.70;5.65;;;;;;;;;;5036315;28;20052;-60
2023/12/15 13:43:11;;;;;;;88.03;7.28;;;;;;;;;;5036335;28;20060;-62
2023/12/15 13:45:45;;;;;;;65.40;7.68;;;;;;;;;;5033673;28;20509;-62
2023/12/15 13:48:23;;;;;;;63.95;7.00;;;;;;;;;;5040063;28;20053;-62
2023/12/15 13:50:58;;;;;;;72.07;7.22;;;;;;;;;;5038119;28;20045;-61
2023/12/15 13:53:26;;;;;;;63.28;8.43;;;;;;;;;;5039078;28;20063;-61
2023/12/15 13:55:59;;;;;;;;;;;;;;;;;;5037350;28;20144;-61
2023/12/15 13:58:33;;;;;;;59.33;6.25;;;;;;;;;;5037163;28;19978;-53
2023/12/15 14:01:01;;;;;;;62.20;7.38;;;;;;;;;;5035641;28;20140;-51
2023/12/15 14:03:28;;;;;;;58.15;7.43;;;;;;;;;;5037833;28;20719;-48
2023/12/15 14:06:02;;;;;;;88.57;7.93;;;;;;;;;;5038736;28;20125;-70
2023/12/15 14:08:30;;;;;;;90.47;9.88;;;;;;;;;;5038374;28;20466;-62
2023/12/15 14:11:04;;;;;;;82.22;8.60;;;;;;;;;;5035474;28;20052;-61
2023/12/15 14:13:32;;;;;;;85.38;7.95;;;;;;;;;;5038580;28;20587;-62
2023/12/15 14:15:59;;;;;;;88.50;7.38;;;;;;;;;;5037626;28;20081;-62
2023/12/15 14:18:36;;;;;;;76.82;6.90;;;;;;;;;;5036200;28;20048;-62
2023/12/15 14:21:04;;;;;;;71.05;7.35;;;;;;;;;;5037368;28;20055;-61
2023/12/15 14:23:32;;;;;;;75.40;7.53;;;;;;;;;;5042214;28;20049;-62
2023/12/15 14:26:06;;;;;;;85.10;8.48;;;;;;;;;;5038643;28;20047;-60
2023/12/15 14:28:34;;;;;;;87.35;7.90;;;;;;;;;;5035652;28;20053;-60
2023/12/15 14:31:15;;;;;;;80.43;7.20;;;;;;;;;;5019076;28;20121;-60
2023/12/15 14:33:43;;;;;;;86.28;8.75;;;;;;;;;;5018742;28;20045;-60
2023/12/15 14:36:17;;;;;;;79.38;7.63;;;;;;;;;;4994993;28;20058;-55
2023/12/15 14:38:51;;;;;;;79.53;7.95;;;;;;;;;;5014737;28;20228;-62
2023/12/15 14:41:18;;;;;;;79.68;8.45;;;;;;;;;;5017169;28;20042;-62
2023/12/15 14:43:45;;;;;;;;;;;;;;;;;;4996665;28;20050;-61
2023/12/15 14:46:20;;;;;;;59.63;6.57;;;;;;;;;;5013827;28;19921;-62
2023/12/15 14:48:47;;;;;;;71.90;7.18;;;;;;;;;;5013524;28;20530;-62
2023/12/15 14:51:21;;;;;;;80.85;8.13;;;;;;;;;;5012020;28;20085;-62
2023/12/15 14:53:48;;;;;;;59.50;6.68;;;;;;;;;;5014344;28;20049;-60
2023/12/15 14:56:15;;;;;;;81.57;8.35;;;;;;;;;;5010767;28;20042;-60